createdAt,value
2022-10-09T00:00:40.394Z,293.00
2022-10-09T00:01:40.350Z,296.00
2022-10-09T00:02:40.426Z,309.00
2022-10-09T00:03:40.331Z,301.00
2022-10-09T00:04:40.343Z,300.00
2022-10-09T00:05:40.336Z,304.00
2022-10-09T00:06:40.322Z,306.00
2022-10-09T00:07:40.302Z,304.00
2022-10-09T00:08:40.283Z,309.00
2022-10-09T00:09:40.261Z,297.00
2022-10-09T00:10:40.244Z,295.00
2022-10-09T00:11:40.216Z,302.00
2022-10-09T00:12:40.228Z,302.00
2022-10-09T00:13:40.225Z,291.00
2022-10-09T00:14:40.232Z,300.00
2022-10-09T00:15:40.182Z,296.00
2022-10-09T00:16:40.219Z,298.00
2022-10-09T00:17:40.142Z,307.00
2022-10-09T00:18:40.153Z,316.00
2022-10-09T00:19:40.116Z,323.00
2022-10-09T00:20:40.154Z,320.00
2022-10-09T00:21:40.109Z,305.00
2022-10-09T00:22:40.095Z,298.00
2022-10-09T00:23:40.099Z,301.00
2022-10-09T00:24:40.060Z,298.00
2022-10-09T00:25:40.041Z,293.00
2022-10-09T00:26:40.025Z,305.00
2022-10-09T00:27:40.004Z,295.00
2022-10-09T00:28:40.060Z,292.00
2022-10-09T00:29:39.993Z,319.00
2022-10-09T00:30:40.057Z,310.00
2022-10-09T00:31:39.954Z,311.00
2022-10-09T00:32:39.950Z,320.00
2022-10-09T00:33:39.930Z,321.00
2022-10-09T00:34:39.964Z,303.00
2022-10-09T00:35:39.905Z,309.00
2022-10-09T00:36:39.895Z,324.00
2022-10-09T00:37:39.877Z,337.00
2022-10-09T00:38:39.888Z,336.00
2022-10-09T00:39:39.849Z,355.00
2022-10-09T00:40:39.860Z,356.00
2022-10-09T00:41:39.846Z,356.00
2022-10-09T00:42:39.861Z,390.00
2022-10-09T00:43:39.801Z,356.00
2022-10-09T00:44:39.790Z,351.00
2022-10-09T00:45:39.784Z,340.00
2022-10-09T00:46:39.802Z,333.00
2022-10-09T00:47:39.765Z,343.00
2022-10-09T00:48:39.768Z,345.00
2022-10-09T00:49:39.733Z,339.00
2022-10-09T00:50:39.727Z,321.00
2022-10-09T00:51:39.731Z,316.00
2022-10-09T00:52:39.707Z,295.00
2022-10-09T00:53:39.685Z,310.00
2022-10-09T00:54:39.659Z,309.00
2022-10-09T00:55:39.641Z,308.00
2022-10-09T00:56:39.652Z,298.00
2022-10-09T00:57:39.656Z,304.00
2022-10-09T00:58:39.606Z,304.00
2022-10-09T00:59:39.593Z,307.00
2022-10-09T01:00:39.609Z,317.00
2022-10-09T01:01:39.624Z,320.00
2022-10-09T01:02:39.641Z,320.00
2022-10-09T01:03:39.539Z,311.00
2022-10-09T01:04:39.529Z,291.00
2022-10-09T01:05:39.512Z,286.00
2022-10-09T01:06:39.525Z,289.00
2022-10-09T01:07:39.491Z,281.00
2022-10-09T01:08:39.510Z,268.00
2022-10-09T01:09:39.482Z,268.00
2022-10-09T01:10:39.469Z,259.00
2022-10-09T01:11:39.509Z,261.00
2022-10-09T01:12:39.463Z,261.00
2022-10-09T01:13:39.417Z,257.00
2022-10-09T01:14:39.399Z,254.00
2022-10-09T01:15:39.437Z,257.00
2022-10-09T01:16:39.390Z,257.00
2022-10-09T01:17:39.376Z,251.00
2022-10-09T01:18:39.356Z,263.00
2022-10-09T01:19:39.352Z,255.00
2022-10-09T01:20:39.328Z,265.00
2022-10-09T01:21:39.328Z,267.00
2022-10-09T01:22:39.323Z,273.00
2022-10-09T01:23:39.294Z,280.00
2022-10-09T01:24:39.278Z,283.00
2022-10-09T01:25:39.267Z,275.00
2022-10-09T01:26:39.248Z,273.00
2022-10-09T01:27:39.248Z,271.00
2022-10-09T01:28:39.355Z,276.00
2022-10-09T01:29:39.196Z,279.00
2022-10-09T01:30:39.229Z,288.00
2022-10-09T01:31:39.171Z,296.00
2022-10-09T01:32:39.182Z,302.00
2022-10-09T01:33:39.169Z,309.00
2022-10-09T01:34:39.177Z,313.00
2022-10-09T01:35:39.132Z,305.00
2022-10-09T01:36:39.148Z,313.00
2022-10-09T01:37:39.093Z,312.00
2022-10-09T01:38:39.086Z,318.00
2022-10-09T01:39:40.201Z,315.00
2022-10-09T01:40:39.068Z,311.00
2022-10-09T01:41:39.064Z,313.00
2022-10-09T01:42:39.053Z,321.00
2022-10-09T01:43:39.036Z,319.00
2022-10-09T01:44:39.007Z,314.00
2022-10-09T01:45:39.007Z,315.00
2022-10-09T01:46:39.022Z,317.00
2022-10-09T01:47:38.983Z,327.00
2022-10-09T01:48:38.975Z,319.00
2022-10-09T01:49:38.979Z,319.00
2022-10-09T01:50:38.947Z,320.00
2022-10-09T01:51:38.932Z,294.00
2022-10-09T01:52:41.250Z,314.00
2022-10-09T01:53:38.892Z,312.00
2022-10-09T01:54:38.897Z,314.00
2022-10-09T01:55:38.856Z,307.00
2022-10-09T01:56:38.878Z,316.00
2022-10-09T01:57:38.866Z,309.00
2022-10-09T01:58:38.853Z,310.00
2022-10-09T01:59:38.811Z,322.00
2022-10-09T02:00:38.825Z,301.00
2022-10-09T02:01:38.803Z,326.00
2022-10-09T02:02:38.795Z,307.00
2022-10-09T02:03:38.769Z,310.00
2022-10-09T02:04:38.763Z,309.00
2022-10-09T02:05:38.750Z,308.00
2022-10-09T02:06:38.718Z,297.00
2022-10-09T02:07:38.780Z,288.00
2022-10-09T02:08:38.717Z,290.00
2022-10-09T02:09:38.701Z,295.00
2022-10-09T02:10:38.698Z,291.00
2022-10-09T02:11:38.657Z,285.00
2022-10-09T02:12:38.640Z,281.00
2022-10-09T02:13:38.630Z,280.00
2022-10-09T02:14:38.657Z,281.00
2022-10-09T02:15:38.636Z,275.00
2022-10-09T02:16:38.609Z,274.00
2022-10-09T02:17:38.607Z,281.00
2022-10-09T02:18:38.555Z,279.00
2022-10-09T02:19:38.568Z,285.00
2022-10-09T02:20:38.559Z,318.00
2022-10-09T02:21:38.570Z,316.00
2022-10-09T02:22:38.531Z,310.00
2022-10-09T02:23:38.519Z,310.00
2022-10-09T02:24:38.479Z,319.00
2022-10-09T02:25:38.488Z,340.00
2022-10-09T02:26:38.477Z,337.00
2022-10-09T02:27:38.466Z,308.00
2022-10-09T02:28:40.512Z,313.00
2022-10-09T02:29:38.437Z,280.00
2022-10-09T02:30:38.420Z,279.00
2022-10-09T02:31:38.447Z,310.00
2022-10-09T02:32:38.413Z,312.00
2022-10-09T02:33:38.386Z,295.00
2022-10-09T02:34:38.368Z,301.00
2022-10-09T02:35:38.361Z,306.00
2022-10-09T02:36:38.334Z,316.00
2022-10-09T02:37:38.320Z,344.00
2022-10-09T02:38:38.305Z,356.00
2022-10-09T02:39:38.314Z,327.00
2022-10-09T02:40:38.270Z,314.00
2022-10-09T02:41:38.281Z,305.00
2022-10-09T02:42:38.254Z,310.00
2022-10-09T02:43:38.239Z,303.00
2022-10-09T02:44:38.251Z,300.00
2022-10-09T02:45:38.214Z,300.00
2022-10-09T02:46:38.257Z,299.00
2022-10-09T02:47:38.204Z,299.00
2022-10-09T02:48:38.197Z,297.00
2022-10-09T02:49:38.180Z,324.00
2022-10-09T02:50:38.160Z,341.00
2022-10-09T02:51:38.132Z,329.00
2022-10-09T02:52:38.112Z,337.00
2022-10-09T02:53:38.107Z,360.00
2022-10-09T02:54:38.101Z,401.00
2022-10-09T02:55:38.082Z,364.00
2022-10-09T02:56:39.069Z,411.00
2022-10-09T02:57:38.052Z,409.00
2022-10-09T02:58:38.068Z,424.00
2022-10-09T02:59:38.044Z,420.00
2022-10-09T03:00:38.016Z,414.00
2022-10-09T03:01:38.056Z,430.00
2022-10-09T03:02:38.103Z,423.00
2022-10-09T03:03:37.981Z,415.00
2022-10-09T03:04:37.980Z,422.00
2022-10-09T03:05:37.972Z,412.00
2022-10-09T03:06:37.934Z,409.00
2022-10-09T03:07:37.941Z,403.00
2022-10-09T03:08:37.925Z,399.00
2022-10-09T03:09:37.920Z,403.00
2022-10-09T03:10:37.913Z,405.00
2022-10-09T03:11:37.874Z,412.00
2022-10-09T03:12:37.874Z,403.00
2022-10-09T03:13:37.871Z,402.00
2022-10-09T03:14:37.858Z,409.00
2022-10-09T03:15:37.818Z,378.00
2022-10-09T03:16:37.821Z,380.00
2022-10-09T03:17:37.814Z,405.00
2022-10-09T03:18:37.826Z,400.00
2022-10-09T03:19:37.819Z,381.00
2022-10-09T03:20:37.769Z,382.00
2022-10-09T03:21:37.742Z,386.00
2022-10-09T03:22:37.742Z,383.00
2022-10-09T03:23:37.722Z,376.00
2022-10-09T03:24:37.710Z,365.00
2022-10-09T03:25:37.710Z,368.00
2022-10-09T03:26:37.706Z,349.00
2022-10-09T03:27:37.690Z,358.00
2022-10-09T03:28:37.735Z,353.00
2022-10-09T03:29:37.661Z,359.00
2022-10-09T03:30:37.657Z,378.00
2022-10-09T03:31:51.753Z,379.00
2022-10-09T03:32:37.602Z,397.00
2022-10-09T03:33:37.589Z,404.00
2022-10-09T03:34:37.569Z,412.00
2022-10-09T03:35:37.574Z,424.00
2022-10-09T03:36:37.548Z,387.00
2022-10-09T03:37:37.553Z,396.00
2022-10-09T03:38:37.514Z,385.00
2022-10-09T03:39:37.514Z,388.00
2022-10-09T03:40:37.513Z,377.00
2022-10-09T03:41:37.495Z,396.00
2022-10-09T03:42:37.510Z,410.00
2022-10-09T03:43:37.458Z,396.00
2022-10-09T03:44:37.444Z,401.00
2022-10-09T03:45:37.430Z,396.00
2022-10-09T03:46:37.510Z,392.00
2022-10-09T03:47:37.407Z,408.00
2022-10-09T03:48:37.390Z,403.00
2022-10-09T03:49:37.381Z,393.00
2022-10-09T03:50:37.360Z,403.00
2022-10-09T03:51:37.372Z,400.00
2022-10-09T03:52:37.365Z,387.00
2022-10-09T03:53:37.347Z,381.00
2022-10-09T03:54:37.333Z,359.00
2022-10-09T03:55:37.350Z,359.00
2022-10-09T03:56:37.303Z,343.00
2022-10-09T03:57:37.301Z,351.00
2022-10-09T03:58:37.283Z,330.00
2022-10-09T03:59:37.287Z,339.00
2022-10-09T04:00:37.314Z,352.00
2022-10-09T04:01:37.247Z,372.00
2022-10-09T04:02:37.262Z,387.00
2022-10-09T04:03:37.210Z,395.00
2022-10-09T04:04:37.180Z,401.00
2022-10-09T04:05:37.210Z,425.00
2022-10-09T04:06:37.158Z,397.00
2022-10-09T04:07:37.174Z,405.00
2022-10-09T04:08:37.156Z,412.00
2022-10-09T04:09:37.141Z,397.00
2022-10-09T04:10:37.125Z,402.00
2022-10-09T04:11:37.103Z,401.00
2022-10-09T04:12:37.106Z,409.00
2022-10-09T04:13:37.094Z,405.00
2022-10-09T04:14:37.062Z,425.00
2022-10-09T04:15:37.088Z,411.00
2022-10-09T04:16:37.097Z,409.00
2022-10-09T04:17:37.013Z,428.00
2022-10-09T04:18:37.032Z,426.00
2022-10-09T04:19:36.991Z,421.00
2022-10-09T04:20:36.991Z,409.00
2022-10-09T04:21:37.000Z,405.00
2022-10-09T04:22:36.967Z,396.00
2022-10-09T04:23:36.946Z,393.00
2022-10-09T04:24:36.946Z,392.00
2022-10-09T04:25:36.914Z,410.00
2022-10-09T04:26:36.921Z,418.00
2022-10-09T04:27:36.911Z,394.00
2022-10-09T04:28:36.925Z,403.00
2022-10-09T04:29:36.916Z,405.00
2022-10-09T04:30:36.907Z,412.00
2022-10-09T04:31:36.912Z,410.00
2022-10-09T04:32:36.834Z,411.00
2022-10-09T04:33:36.811Z,413.00
2022-10-09T04:34:36.793Z,417.00
2022-10-09T04:35:36.805Z,405.00
2022-10-09T04:36:36.789Z,409.00
2022-10-09T04:37:36.802Z,391.00
2022-10-09T04:38:36.761Z,382.00
2022-10-09T04:39:36.754Z,361.00
2022-10-09T04:40:36.736Z,358.00
2022-10-09T04:41:38.453Z,348.00
2022-10-09T04:42:36.711Z,353.00
2022-10-09T04:43:36.680Z,356.00
2022-10-09T04:44:36.669Z,383.00
2022-10-09T04:45:36.702Z,368.00
2022-10-09T04:46:36.660Z,376.00
2022-10-09T04:47:36.652Z,392.00
2022-10-09T04:48:36.627Z,394.00
2022-10-09T04:49:36.598Z,409.00
2022-10-09T04:50:36.587Z,422.00
2022-10-09T04:51:36.611Z,387.00
2022-10-09T04:52:36.577Z,400.00
2022-10-09T04:53:36.568Z,415.00
2022-10-09T04:54:36.547Z,401.00
2022-10-09T04:55:36.541Z,391.00
2022-10-09T04:56:36.521Z,391.00
2022-10-09T04:57:36.510Z,395.00
2022-10-09T04:58:36.492Z,404.00
2022-10-09T04:59:36.488Z,408.00
2022-10-09T05:00:36.585Z,407.00
2022-10-09T05:01:38.531Z,417.00
2022-10-09T05:02:36.480Z,407.00
2022-10-09T05:03:36.430Z,401.00
2022-10-09T05:04:36.410Z,380.00
2022-10-09T05:05:36.440Z,377.00
2022-10-09T05:06:36.410Z,378.00
2022-10-09T05:07:36.390Z,392.00
2022-10-09T05:08:36.344Z,414.00
2022-10-09T05:09:36.372Z,400.00
2022-10-09T05:10:36.338Z,403.00
2022-10-09T05:11:40.435Z,403.00
2022-10-09T05:12:36.339Z,413.00
2022-10-09T05:13:36.307Z,399.00
2022-10-09T05:14:36.301Z,410.00
2022-10-09T05:15:36.261Z,416.00
2022-10-09T05:16:49.709Z,392.00
2022-10-09T05:17:36.341Z,379.00
2022-10-09T05:18:36.232Z,356.00
2022-10-09T05:19:36.228Z,350.00
2022-10-09T05:20:36.199Z,359.00
2022-10-09T05:21:36.199Z,370.00
2022-10-09T05:22:36.201Z,380.00
2022-10-09T05:23:36.160Z,378.00
2022-10-09T05:24:36.149Z,384.00
2022-10-09T05:25:36.137Z,379.00
2022-10-09T05:26:36.149Z,358.00
2022-10-09T05:27:36.106Z,332.00
2022-10-09T05:28:36.124Z,353.00
2022-10-09T05:29:36.072Z,339.00
2022-10-09T05:30:36.052Z,340.00
2022-10-09T05:31:36.099Z,330.00
2022-10-09T05:32:36.052Z,317.00
2022-10-09T05:33:36.047Z,326.00
2022-10-09T05:34:36.017Z,309.00
2022-10-09T05:35:35.990Z,329.00
2022-10-09T05:36:35.990Z,309.00
2022-10-09T05:37:35.975Z,316.00
2022-10-09T05:38:35.947Z,310.00
2022-10-09T05:39:35.949Z,318.00
2022-10-09T05:40:35.938Z,320.00
2022-10-09T05:41:35.920Z,318.00
2022-10-09T05:42:35.921Z,321.00
2022-10-09T05:43:35.898Z,319.00
2022-10-09T05:44:35.866Z,313.00
2022-10-09T05:45:35.917Z,291.00
2022-10-09T05:46:35.849Z,302.00
2022-10-09T05:47:35.839Z,309.00
2022-10-09T05:48:35.845Z,292.00
2022-10-09T05:49:35.844Z,310.00
2022-10-09T05:50:35.798Z,305.00
2022-10-09T05:51:35.818Z,285.00
2022-10-09T05:52:35.791Z,309.00
2022-10-09T05:53:35.808Z,311.00
2022-10-09T05:54:35.757Z,318.00
2022-10-09T05:55:35.721Z,310.00
2022-10-09T05:56:35.703Z,335.00
2022-10-09T05:57:35.714Z,309.00
2022-10-09T05:58:35.714Z,303.00
2022-10-09T05:59:35.678Z,312.00
2022-10-09T06:00:35.676Z,315.00
2022-10-09T06:01:35.701Z,326.00
2022-10-09T06:02:35.709Z,320.00
2022-10-09T06:03:35.655Z,316.00
2022-10-09T06:04:35.617Z,316.00
2022-10-09T06:05:35.588Z,314.00
2022-10-09T06:06:35.574Z,308.00
2022-10-09T06:07:35.592Z,310.00
2022-10-09T06:08:35.585Z,310.00
2022-10-09T06:09:35.570Z,299.00
2022-10-09T06:10:35.539Z,289.00
2022-10-09T06:11:35.533Z,281.00
2022-10-09T06:12:35.496Z,270.00
2022-10-09T06:13:35.488Z,258.00
2022-10-09T06:14:35.475Z,264.00
2022-10-09T06:15:35.482Z,262.00
2022-10-09T06:16:35.527Z,286.00
2022-10-09T06:17:35.430Z,300.00
2022-10-09T06:18:35.437Z,315.00
2022-10-09T06:19:35.410Z,321.00
2022-10-09T06:20:35.430Z,313.00
2022-10-09T06:21:35.391Z,336.00
2022-10-09T06:22:35.384Z,331.00
2022-10-09T06:23:35.363Z,323.00
2022-10-09T06:24:35.337Z,319.00
2022-10-09T06:25:35.318Z,330.00
2022-10-09T06:26:35.350Z,326.00
2022-10-09T06:27:35.297Z,321.00
2022-10-09T06:28:35.324Z,323.00
2022-10-09T06:29:35.287Z,332.00
2022-10-09T06:30:38.708Z,323.00
2022-10-09T06:31:35.240Z,319.00
2022-10-09T06:32:35.262Z,314.00
2022-10-09T06:33:35.235Z,307.00
2022-10-09T06:34:35.210Z,306.00
2022-10-09T06:35:35.190Z,297.00
2022-10-09T06:36:35.203Z,289.00
2022-10-09T06:37:35.173Z,291.00
2022-10-09T06:38:35.157Z,292.00
2022-10-09T06:39:35.142Z,291.00
2022-10-09T06:40:35.147Z,288.00
2022-10-09T06:41:35.110Z,285.00
2022-10-09T06:42:35.131Z,288.00
2022-10-09T06:43:35.090Z,288.00
2022-10-09T06:44:35.097Z,288.00
2022-10-09T06:45:35.058Z,286.00
2022-10-09T06:46:35.070Z,279.00
2022-10-09T06:47:35.049Z,279.00
2022-10-09T06:48:35.044Z,276.00
2022-10-09T06:49:35.007Z,279.00
2022-10-09T06:50:35.017Z,279.00
2022-10-09T06:51:34.980Z,277.00
2022-10-09T06:52:35.010Z,279.00
2022-10-09T06:53:34.954Z,280.00
2022-10-09T06:54:34.947Z,272.00
2022-10-09T06:55:34.928Z,272.00
2022-10-09T06:56:34.940Z,271.00
2022-10-09T06:57:34.906Z,270.00
2022-10-09T06:58:34.927Z,278.00
2022-10-09T06:59:34.879Z,279.00
2022-10-09T07:00:34.898Z,278.00
2022-10-09T07:01:34.912Z,279.00
2022-10-09T07:02:34.912Z,276.00
2022-10-09T07:03:34.839Z,271.00
2022-10-09T07:04:34.855Z,270.00
2022-10-09T07:05:34.819Z,275.00
2022-10-09T07:06:34.798Z,270.00
2022-10-09T07:07:34.793Z,267.00
2022-10-09T07:08:34.799Z,266.00
2022-10-09T07:09:34.753Z,264.00
2022-10-09T07:10:34.742Z,263.00
2022-10-09T07:11:34.748Z,268.00
2022-10-09T07:12:34.711Z,268.00
2022-10-09T07:13:34.703Z,268.00
2022-10-09T07:14:34.719Z,266.00
2022-10-09T07:15:34.716Z,263.00
2022-10-09T07:16:34.677Z,259.00
2022-10-09T07:17:34.645Z,258.00
2022-10-09T07:18:34.632Z,259.00
2022-10-09T07:19:34.624Z,256.00
2022-10-09T07:20:34.639Z,255.00
2022-10-09T07:21:34.590Z,258.00
2022-10-09T07:22:34.598Z,257.00
2022-10-09T07:23:34.580Z,260.00
2022-10-09T07:24:34.565Z,262.00
2022-10-09T07:25:34.564Z,261.00
2022-10-09T07:26:34.528Z,258.00
2022-10-09T07:27:34.514Z,259.00
2022-10-09T07:28:34.591Z,257.00
2022-10-09T07:29:34.486Z,259.00
2022-10-09T07:30:34.541Z,258.00
2022-10-09T07:31:34.460Z,258.00
2022-10-09T07:32:34.465Z,260.00
2022-10-09T07:33:34.449Z,257.00
2022-10-09T07:34:34.444Z,258.00
2022-10-09T07:35:34.417Z,255.00
2022-10-09T07:36:34.419Z,257.00
2022-10-09T07:37:34.380Z,257.00
2022-10-09T07:38:34.373Z,257.00
2022-10-09T07:39:34.374Z,259.00
2022-10-09T07:40:34.373Z,257.00
2022-10-09T07:41:34.339Z,258.00
2022-10-09T07:42:34.332Z,260.00
2022-10-09T07:43:34.340Z,261.00
2022-10-09T07:44:34.311Z,260.00
2022-10-09T07:45:34.296Z,257.00
2022-10-09T07:46:34.481Z,257.00
2022-10-09T07:47:34.268Z,257.00
2022-10-09T07:48:34.240Z,257.00
2022-10-09T07:49:34.246Z,254.00
2022-10-09T07:50:34.224Z,258.00
2022-10-09T07:51:34.213Z,267.00
2022-10-09T07:52:34.231Z,264.00
2022-10-09T07:53:36.078Z,267.00
2022-10-09T07:54:34.185Z,263.00
2022-10-09T07:55:34.179Z,258.00
2022-10-09T07:56:34.133Z,257.00
2022-10-09T07:57:34.201Z,257.00
2022-10-09T07:58:34.148Z,251.00
2022-10-09T07:59:34.092Z,253.00
2022-10-09T08:00:34.101Z,262.00
2022-10-09T08:01:34.130Z,261.00
2022-10-09T08:02:34.192Z,265.00
2022-10-09T08:03:34.044Z,261.00
2022-10-09T08:04:34.033Z,260.00
2022-10-09T08:05:34.044Z,256.00
2022-10-09T08:06:34.016Z,255.00
2022-10-09T08:07:35.051Z,253.00
2022-10-09T08:08:33.988Z,253.00
2022-10-09T08:09:33.972Z,257.00
2022-10-09T08:10:33.963Z,262.00
2022-10-09T08:11:33.967Z,254.00
2022-10-09T08:12:33.945Z,255.00
2022-10-09T08:13:33.905Z,263.00
2022-10-09T08:14:33.917Z,264.00
2022-10-09T08:15:33.943Z,264.00
2022-10-09T08:16:33.881Z,264.00
2022-10-09T08:17:33.869Z,269.00
2022-10-09T08:18:33.841Z,268.00
2022-10-09T08:19:33.830Z,257.00
2022-10-09T08:20:33.818Z,255.00
2022-10-09T08:21:33.832Z,257.00
2022-10-09T08:22:33.818Z,256.00
2022-10-09T08:23:33.772Z,256.00
2022-10-09T08:24:33.792Z,256.00
2022-10-09T08:25:33.765Z,257.00
2022-10-09T08:26:33.756Z,257.00
2022-10-09T08:27:33.758Z,255.00
2022-10-09T08:28:33.773Z,250.00
2022-10-09T08:29:36.705Z,250.00
2022-10-09T08:30:33.709Z,259.00
2022-10-09T08:31:33.775Z,377.00
2022-10-09T08:32:33.679Z,377.00
2022-10-09T08:33:33.641Z,320.00
2022-10-09T08:34:33.643Z,289.00
2022-10-09T08:35:34.692Z,293.00
2022-10-09T08:36:33.657Z,275.00
2022-10-09T08:37:33.626Z,233.00
2022-10-09T08:38:46.831Z,216.00
2022-10-09T08:39:33.606Z,230.00
2022-10-09T08:40:33.597Z,258.00
2022-10-09T08:41:33.533Z,276.00
2022-10-09T08:42:33.585Z,285.00
2022-10-09T08:43:33.552Z,288.00
2022-10-09T08:44:33.522Z,292.00
2022-10-09T08:45:33.507Z,291.00
2022-10-09T08:46:33.548Z,293.00
2022-10-09T08:47:33.485Z,296.00
2022-10-09T08:48:33.501Z,296.00
2022-10-09T08:49:33.472Z,293.00
2022-10-09T08:50:33.481Z,292.00
2022-10-09T08:51:33.551Z,293.00
2022-10-09T08:52:33.608Z,296.00
2022-10-09T08:53:33.568Z,296.00
2022-10-09T08:54:33.507Z,295.00
2022-10-09T08:55:33.445Z,296.00
2022-10-09T08:56:33.356Z,295.00
2022-10-09T08:57:33.371Z,299.00
2022-10-09T08:58:33.347Z,300.00
2022-10-09T08:59:33.345Z,302.00
2022-10-09T09:00:33.300Z,307.00
2022-10-09T09:01:33.369Z,309.00
2022-10-09T09:02:33.355Z,309.00
2022-10-09T09:03:33.248Z,311.00
2022-10-09T09:04:33.256Z,311.00
2022-10-09T09:05:33.245Z,313.00
2022-10-09T09:06:33.324Z,310.00
2022-10-09T09:07:33.250Z,310.00
2022-10-09T09:08:33.201Z,307.00
2022-10-09T09:09:33.184Z,307.00
2022-10-09T09:10:33.166Z,307.00
2022-10-09T09:11:33.153Z,304.00
2022-10-09T09:12:33.148Z,304.00
2022-10-09T09:13:33.136Z,305.00
2022-10-09T09:14:33.104Z,304.00
2022-10-09T09:15:33.122Z,304.00
2022-10-09T09:16:33.095Z,307.00
2022-10-09T09:17:33.102Z,307.00
2022-10-09T09:18:33.083Z,308.00
2022-10-09T09:19:33.049Z,306.00
2022-10-09T09:20:33.054Z,309.00
2022-10-09T09:21:33.013Z,310.00
2022-10-09T09:22:33.087Z,311.00
2022-10-09T09:23:32.990Z,314.00
2022-10-09T09:24:32.973Z,314.00
2022-10-09T09:25:32.984Z,313.00
2022-10-09T09:26:33.023Z,311.00
2022-10-09T09:27:33.058Z,312.00
2022-10-09T09:28:33.030Z,312.00
2022-10-09T09:29:32.933Z,311.00
2022-10-09T09:30:33.047Z,310.00
2022-10-09T09:31:32.953Z,308.00
2022-10-09T09:32:32.890Z,309.00
2022-10-09T09:33:36.251Z,310.00
2022-10-09T09:34:32.869Z,311.00
2022-10-09T09:35:32.846Z,310.00
2022-10-09T09:36:32.846Z,309.00
2022-10-09T09:37:32.826Z,312.00
2022-10-09T09:38:32.855Z,311.00
2022-10-09T09:40:24.258Z,310.00
2022-10-09T09:40:43.231Z,308.00
2022-10-09T09:41:32.800Z,307.00
2022-10-09T09:42:32.920Z,307.00
2022-10-09T09:43:32.760Z,307.00
2022-10-09T09:44:32.756Z,308.00
2022-10-09T09:45:32.716Z,310.00
2022-10-09T09:46:32.775Z,311.00
2022-10-09T09:47:32.689Z,307.00
2022-10-09T09:48:32.671Z,309.00
2022-10-09T09:49:32.708Z,307.00
2022-10-09T09:50:46.999Z,305.00
2022-10-09T09:51:32.652Z,305.00
2022-10-09T09:52:32.650Z,307.00
2022-10-09T09:53:32.607Z,311.00
2022-10-09T09:54:32.597Z,316.00
2022-10-09T09:55:32.594Z,317.00
2022-10-09T09:56:47.748Z,317.00
2022-10-09T09:57:32.608Z,316.00
2022-10-09T09:58:32.632Z,312.00
2022-10-09T09:59:32.691Z,311.00
2022-10-09T10:00:32.698Z,309.00
2022-10-09T10:01:32.521Z,309.00
2022-10-09T10:02:32.494Z,312.00
2022-10-09T10:03:32.455Z,314.00
2022-10-09T10:04:32.523Z,314.00
2022-10-09T10:05:32.449Z,312.00
2022-10-09T10:06:32.446Z,316.00
2022-10-09T10:07:32.410Z,315.00
2022-10-09T10:08:32.419Z,315.00
2022-10-09T10:09:32.405Z,316.00
2022-10-09T10:10:32.372Z,317.00
2022-10-09T10:11:32.389Z,317.00
2022-10-09T10:12:32.349Z,317.00
2022-10-09T10:13:32.324Z,318.00
2022-10-09T10:14:32.345Z,319.00
2022-10-09T10:15:32.360Z,318.00
2022-10-09T10:16:32.502Z,317.00
2022-10-09T10:17:32.311Z,313.00
2022-10-09T10:18:32.268Z,310.00
2022-10-09T10:19:32.286Z,311.00
2022-10-09T10:20:32.281Z,311.00
2022-10-09T10:21:32.241Z,310.00
2022-10-09T10:22:32.276Z,312.00
2022-10-09T10:23:32.216Z,314.00
2022-10-09T10:24:32.188Z,314.00
2022-10-09T10:25:32.193Z,315.00
2022-10-09T10:26:32.182Z,318.00
2022-10-09T10:27:32.144Z,318.00
2022-10-09T10:28:32.239Z,321.00
2022-10-09T10:29:32.136Z,319.00
2022-10-09T10:30:32.112Z,319.00
2022-10-09T10:31:32.173Z,316.00
2022-10-09T10:32:32.112Z,315.00
2022-10-09T10:33:32.097Z,317.00
2022-10-09T10:34:32.098Z,315.00
2022-10-09T10:35:32.075Z,317.00
2022-10-09T10:36:32.045Z,319.00
2022-10-09T10:37:32.060Z,317.00
2022-10-09T10:38:32.093Z,318.00
2022-10-09T10:39:32.042Z,316.00
2022-10-09T10:40:32.043Z,315.00
2022-10-09T10:41:32.008Z,314.00
2022-10-09T10:42:31.972Z,313.00
2022-10-09T10:43:31.952Z,312.00
2022-10-09T10:44:31.939Z,315.00
2022-10-09T10:45:31.930Z,317.00
2022-10-09T10:46:31.995Z,317.00
2022-10-09T10:47:31.928Z,314.00
2022-10-09T10:48:31.873Z,311.00
2022-10-09T10:49:33.993Z,309.00
2022-10-09T10:50:31.913Z,311.00
2022-10-09T10:51:31.838Z,312.00
2022-10-09T10:52:31.826Z,310.00
2022-10-09T10:53:31.845Z,308.00
2022-10-09T10:54:31.812Z,311.00
2022-10-09T10:55:31.797Z,314.00
2022-10-09T10:56:31.808Z,311.00
2022-10-09T10:57:31.778Z,307.00
2022-10-09T10:58:31.744Z,311.00
2022-10-09T10:59:31.785Z,310.00
2022-10-09T11:00:31.723Z,312.00
2022-10-09T11:01:31.732Z,312.00
2022-10-09T11:02:32.742Z,312.00
2022-10-09T11:03:31.761Z,311.00
2022-10-09T11:04:31.709Z,309.00
2022-10-09T11:05:31.689Z,310.00
2022-10-09T11:06:31.659Z,312.00
2022-10-09T11:07:31.660Z,314.00
2022-10-09T11:08:31.702Z,313.00
2022-10-09T11:09:31.632Z,319.00
2022-10-09T11:10:31.624Z,319.00
2022-10-09T11:11:31.597Z,316.00
2022-10-09T11:12:57.734Z,315.00
2022-10-09T11:13:31.719Z,309.00
2022-10-09T11:14:31.686Z,313.00
2022-10-09T11:15:31.685Z,314.00
2022-10-09T11:16:31.715Z,311.00
2022-10-09T11:17:31.701Z,309.00
2022-10-09T11:18:31.551Z,310.00
2022-10-09T11:19:31.608Z,311.00
2022-10-09T11:20:31.595Z,308.00
2022-10-09T11:21:31.602Z,305.00
2022-10-09T11:22:31.532Z,302.00
2022-10-09T11:23:31.542Z,301.00
2022-10-09T11:24:31.548Z,299.00
2022-10-09T11:25:31.554Z,294.00
2022-10-09T11:26:31.508Z,285.00
2022-10-09T11:27:31.519Z,284.00
2022-10-09T11:28:31.521Z,287.00
2022-10-09T11:29:31.366Z,289.00
2022-10-09T11:30:31.422Z,293.00
2022-10-09T11:31:31.418Z,294.00
2022-10-09T11:32:31.349Z,293.00
2022-10-09T11:33:31.345Z,296.00
2022-10-09T11:34:31.450Z,297.00
2022-10-09T11:35:31.282Z,297.00
2022-10-09T11:36:31.336Z,299.00
2022-10-09T11:37:31.278Z,302.00
2022-10-09T11:38:31.252Z,302.00
2022-10-09T11:39:31.239Z,302.00
2022-10-09T11:40:31.205Z,301.00
2022-10-09T11:41:31.730Z,302.00
2022-10-09T11:42:31.245Z,301.00
2022-10-09T11:43:31.201Z,303.00
2022-10-09T11:44:31.291Z,304.00
2022-10-09T11:45:31.221Z,306.00
2022-10-09T11:46:31.158Z,305.00
2022-10-09T11:47:31.243Z,304.00
2022-10-09T11:48:31.599Z,303.00
2022-10-09T11:49:31.127Z,304.00
2022-10-09T11:50:31.082Z,306.00
2022-10-09T11:51:31.058Z,307.00
2022-10-09T11:52:31.103Z,306.00
2022-10-09T11:53:31.083Z,307.00
2022-10-09T11:54:31.058Z,308.00
2022-10-09T11:55:31.075Z,308.00
2022-10-09T11:56:31.004Z,309.00
2022-10-09T11:57:30.986Z,308.00
2022-10-09T11:58:31.009Z,310.00
2022-10-09T11:59:30.994Z,309.00
2022-10-09T12:00:30.947Z,309.00
2022-10-09T12:01:31.040Z,311.00
2022-10-09T12:02:31.038Z,312.00
2022-10-09T12:03:30.921Z,314.00
2022-10-09T12:04:54.069Z,313.00
2022-10-09T12:05:31.012Z,313.00
2022-10-09T12:06:30.903Z,311.00
2022-10-09T12:07:31.414Z,310.00
2022-10-09T12:08:30.880Z,312.00
2022-10-09T12:09:30.844Z,311.00
2022-10-09T12:10:30.843Z,311.00
2022-10-09T12:11:30.803Z,313.00
2022-10-09T12:12:30.820Z,312.00
2022-10-09T12:13:30.861Z,315.00
2022-10-09T12:14:30.780Z,314.00
2022-10-09T12:15:30.832Z,308.00
2022-10-09T12:16:30.896Z,313.00
2022-10-09T12:17:30.738Z,308.00
2022-10-09T12:18:30.736Z,306.00
2022-10-09T12:19:30.714Z,304.00
2022-10-09T12:20:30.681Z,303.00
2022-10-09T12:21:30.672Z,301.00
2022-10-09T12:22:30.675Z,301.00
2022-10-09T12:23:31.053Z,300.00
2022-10-09T12:24:30.644Z,301.00
2022-10-09T12:25:30.654Z,300.00
2022-10-09T12:26:30.630Z,305.00
2022-10-09T12:27:30.595Z,308.00
2022-10-09T12:28:30.647Z,307.00